sensor_id;sensor_type;location;lat;lon;timestamp;pressure;altitude;pressure_sealevel;temperature;humidity
9077;BME280;4574;51.072;17.174;2023-03-16T00:00:16;100554.38;;;2.23;100.00
9077;BME280;4574;51.072;17.174;2023-03-16T00:02:44;100552.69;;;2.22;100.00
9077;BME280;4574;51.072;17.174;2023-03-16T00:05:13;100557.13;;;2.65;100.00
9077;BME280;4574;51.072;17.174;2023-03-16T00:07:42;100554.13;;;2.57;100.00
9077;BME280;4574;51.072;17.174;2023-03-16T00:10:12;100554.81;;;2.45;100.00
9077;BME280;4574;51.072;17.174;2023-03-16T00:12:42;100557.22;;;2.34;100.00
9077;BME280;4574;51.072;17.174;2023-03-16T00:15:11;100560.16;;;2.28;100.00
9077;BME280;4574;51.072;17.174;2023-03-16T00:17:40;100561.44;;;2.21;100.00
9077;BME280;4574;51.072;17.174;2023-03-16T00:20:10;100566.84;;;2.18;100.00
9077;BME280;4574;51.072;17.174;2023-03-16T00:22:39;100572.13;;;2.17;100.00
9077;BME280;4574;51.072;17.174;2023-03-16T00:25:10;100570.72;;;2.11;100.00
9077;BME280;4574;51.072;17.174;2023-03-16T00:27:41;100576.94;;;2.09;100.00
9077;BME280;4574;51.072;17.174;2023-03-16T00:30:11;100574.66;;;2.03;100.00
9077;BME280;4574;51.072;17.174;2023-03-16T00:32:40;100578.38;;;1.99;100.00
9077;BME280;4574;51.072;17.174;2023-03-16T00:35:09;100578.66;;;1.94;100.00
9077;BME280;4574;51.072;17.174;2023-03-16T00:37:38;100579.41;;;1.96;100.00
9077;BME280;4574;51.072;17.174;2023-03-16T00:40:09;100578.81;;;1.91;100.00
9077;BME280;4574;51.072;17.174;2023-03-16T00:42:39;100577.19;;;1.89;100.00
9077;BME280;4574;51.072;17.174;2023-03-16T00:45:10;100579.81;;;1.89;100.00
9077;BME280;4574;51.072;17.174;2023-03-16T00:47:39;100579.81;;;1.89;100.00
9077;BME280;4574;51.072;17.174;2023-03-16T00:50:09;100584.19;;;1.88;100.00
9077;BME280;4574;51.072;17.174;2023-03-16T00:52:38;100580.91;;;1.85;100.00
9077;BME280;4574;51.072;17.174;2023-03-16T00:55:08;100589.66;;;1.84;100.00
9077;BME280;4574;51.072;17.174;2023-03-16T00:57:37;100587.16;;;1.82;100.00
9077;BME280;4574;51.072;17.174;2023-03-16T01:00:09;100596.81;;;1.80;100.00
9077;BME280;4574;51.072;17.174;2023-03-16T01:02:42;100591.78;;;1.77;100.00
9077;BME280;4574;51.072;17.174;2023-03-16T01:05:13;100596.06;;;1.78;100.00
9077;BME280;4574;51.072;17.174;2023-03-16T01:07:42;100589.22;;;1.76;100.00
9077;BME280;4574;51.072;17.174;2023-03-16T01:10:11;100603.28;;;1.73;100.00
9077;BME280;4574;51.072;17.174;2023-03-16T01:12:40;100599.31;;;1.66;100.00
9077;BME280;4574;51.072;17.174;2023-03-16T01:15:13;100608.69;;;1.70;100.00
9077;BME280;4574;51.072;17.174;2023-03-16T01:17:42;100592.50;;;1.64;100.00
9077;BME280;4574;51.072;17.174;2023-03-16T01:20:11;100599.22;;;1.68;100.00
9077;BME280;4574;51.072;17.174;2023-03-16T01:22:41;100611.28;;;1.70;100.00
9077;BME280;4574;51.072;17.174;2023-03-16T01:25:11;100603.00;;;1.62;100.00
9077;BME280;4574;51.072;17.174;2023-03-16T01:27:40;100620.34;;;1.63;100.00
9077;BME280;4574;51.072;17.174;2023-03-16T01:30:10;100612.78;;;1.59;100.00
9077;BME280;4574;51.072;17.174;2023-03-16T01:32:40;100617.13;;;1.58;100.00
9077;BME280;4574;51.072;17.174;2023-03-16T01:35:09;100628.59;;;1.56;100.00
9077;BME280;4574;51.072;17.174;2023-03-16T01:37:38;100624.34;;;1.53;100.00
9077;BME280;4574;51.072;17.174;2023-03-16T01:40:08;100628.81;;;1.51;100.00
9077;BME280;4574;51.072;17.174;2023-03-16T01:42:46;100624.63;;;1.49;100.00
9077;BME280;4574;51.072;17.174;2023-03-16T01:48:23;100632.59;;;1.46;100.00
9077;BME280;4574;51.072;17.174;2023-03-16T01:50:53;100635.28;;;1.44;100.00
9077;BME280;4574;51.072;17.174;2023-03-16T01:53:23;100631.75;;;1.45;100.00
9077;BME280;4574;51.072;17.174;2023-03-16T01:55:52;100632.50;;;1.47;100.00
9077;BME280;4574;51.072;17.174;2023-03-16T01:58:22;100636.19;;;1.43;100.00
9077;BME280;4574;51.072;17.174;2023-03-16T02:00:51;100640.63;;;1.41;100.00
9077;BME280;4574;51.072;17.174;2023-03-16T02:03:22;100639.88;;;1.39;100.00
9077;BME280;4574;51.072;17.174;2023-03-16T02:05:58;100633.22;;;1.34;100.00
9077;BME280;4574;51.072;17.174;2023-03-16T02:08:27;100643.66;;;1.34;100.00
9077;BME280;4574;51.072;17.174;2023-03-16T02:10:57;100632.03;;;1.24;100.00
9077;BME280;4574;51.072;17.174;2023-03-16T02:13:27;100646.66;;;1.27;100.00
9077;BME280;4574;51.072;17.174;2023-03-16T02:15:58;100632.41;;;1.17;100.00
9077;BME280;4574;51.072;17.174;2023-03-16T02:18:29;100649.41;;;1.24;100.00
9077;BME280;4574;51.072;17.174;2023-03-16T02:21:04;100650.50;;;1.20;100.00
9077;BME280;4574;51.072;17.174;2023-03-16T02:23:38;100649.44;;;1.07;100.00
9077;BME280;4574;51.072;17.174;2023-03-16T02:26:15;100647.75;;;1.06;100.00
9077;BME280;4574;51.072;17.174;2023-03-16T02:28:55;100641.00;;;1.02;100.00
9077;BME280;4574;51.072;17.174;2023-03-16T02:31:28;100638.69;;;0.96;100.00
9077;BME280;4574;51.072;17.174;2023-03-16T02:33:58;100652.44;;;0.99;100.00
9077;BME280;4574;51.072;17.174;2023-03-16T02:36:28;100646.66;;;0.93;100.00
9077;BME280;4574;51.072;17.174;2023-03-16T02:38:57;100653.41;;;0.97;100.00
9077;BME280;4574;51.072;17.174;2023-03-16T02:41:26;100663.69;;;1.00;100.00
9077;BME280;4574;51.072;17.174;2023-03-16T02:44:01;100652.44;;;0.99;100.00
9077;BME280;4574;51.072;17.174;2023-03-16T02:46:32;100649.06;;;0.97;100.00
9077;BME280;4574;51.072;17.174;2023-03-16T02:49:05;100662.47;;;1.07;100.00
9077;BME280;4574;51.072;17.174;2023-03-16T02:51:35;100666.75;;;1.08;100.00
9077;BME280;4574;51.072;17.174;2023-03-16T02:54:03;100671.13;;;1.07;100.00
9077;BME280;4574;51.072;17.174;2023-03-16T02:56:32;100671.97;;;1.08;100.00
9077;BME280;4574;51.072;17.174;2023-03-16T02:59:03;100671.13;;;1.07;100.00
9077;BME280;4574;51.072;17.174;2023-03-16T03:01:33;100678.88;;;1.09;100.00
9077;BME280;4574;51.072;17.174;2023-03-16T03:04:03;100667.16;;;1.00;100.00
9077;BME280;4574;51.072;17.174;2023-03-16T03:06:33;100668.38;;;0.93;100.00
9077;BME280;4574;51.072;17.174;2023-03-16T03:09:02;100679.78;;;0.91;100.00
9077;BME280;4574;51.072;17.174;2023-03-16T03:11:31;100666.91;;;0.88;100.00
9077;BME280;4574;51.072;17.174;2023-03-16T03:14:00;100674.41;;;0.94;100.00
9077;BME280;4574;51.072;17.174;2023-03-16T03:16:29;100679.63;;;0.94;100.00
9077;BME280;4574;51.072;17.174;2023-03-16T03:19:00;100675.78;;;0.84;100.00
9077;BME280;4574;51.072;17.174;2023-03-16T03:21:29;100688.44;;;0.91;100.00
9077;BME280;4574;51.072;17.174;2023-03-16T03:23:58;100691.88;;;0.92;100.00
9077;BME280;4574;51.072;17.174;2023-03-16T03:26:26;100684.16;;;0.90;100.00
9077;BME280;4574;51.072;17.174;2023-03-16T03:28:55;100683.91;;;0.95;100.00
9077;BME280;4574;51.072;17.174;2023-03-16T03:31:24;100688.16;;;0.97;100.00
9077;BME280;4574;51.072;17.174;2023-03-16T03:33:53;100688.91;;;0.99;100.00
9077;BME280;4574;51.072;17.174;2023-03-16T03:36:23;100699.25;;;1.01;100.00
9077;BME280;4574;51.072;17.174;2023-03-16T03:38:52;100693.97;;;1.02;100.00
9077;BME280;4574;51.072;17.174;2023-03-16T03:41:24;100699.25;;;1.01;100.00
9077;BME280;4574;51.072;17.174;2023-03-16T03:43:53;100702.88;;;0.98;100.00
9077;BME280;4574;51.072;17.174;2023-03-16T03:46:22;100707.06;;;1.01;100.00
9077;BME280;4574;51.072;17.174;2023-03-16T03:48:51;100702.72;;;1.01;100.00
9077;BME280;4574;51.072;17.174;2023-03-16T03:51:20;100698.78;;;0.93;100.00
9077;BME280;4574;51.072;17.174;2023-03-16T03:53:50;100702.00;;;0.98;100.00
9077;BME280;4574;51.072;17.174;2023-03-16T03:56:19;100705.38;;;1.00;100.00
9077;BME280;4574;51.072;17.174;2023-03-16T03:58:47;100708.91;;;0.99;100.00
9077;BME280;4574;51.072;17.174;2023-03-16T04:01:16;100711.66;;;0.96;100.00
9077;BME280;4574;51.072;17.174;2023-03-16T04:03:44;100709.06;;;0.96;100.00
9077;BME280;4574;51.072;17.174;2023-03-16T04:06:13;100713.28;;;0.98;100.00
9077;BME280;4574;51.072;17.174;2023-03-16T04:08:42;100712.44;;;0.98;100.00
9077;BME280;4574;51.072;17.174;2023-03-16T04:11:15;100724.50;;;1.00;100.00
9077;BME280;4574;51.072;17.174;2023-03-16T04:13:44;100720.19;;;0.99;100.00
9077;BME280;4574;51.072;17.174;2023-03-16T04:16:13;100702.47;;;0.89;100.00
9077;BME280;4574;51.072;17.174;2023-03-16T04:18:43;100704.00;;;0.93;100.00
9077;BME280;4574;51.072;17.174;2023-03-16T04:21:14;100716.72;;;0.99;100.00
9077;BME280;4574;51.072;17.174;2023-03-16T04:23:43;100719.47;;;0.96;100.00
9077;BME280;4574;51.072;17.174;2023-03-16T04:26:12;100719.47;;;0.96;100.00
9077;BME280;4574;51.072;17.174;2023-03-16T04:28:57;100696.00;;;0.79;100.00
9077;BME280;4574;51.072;17.174;2023-03-16T04:31:41;100721.31;;;0.94;100.00
9077;BME280;4574;51.072;17.174;2023-03-16T04:34:10;100719.63;;;0.93;100.00
9077;BME280;4574;51.072;17.174;2023-03-16T04:36:39;100728.38;;;0.92;100.00
9077;BME280;4574;51.072;17.174;2023-03-16T04:39:10;100724.94;;;0.91;100.00
9077;BME280;4574;51.072;17.174;2023-03-16T04:41:39;100730.19;;;0.90;100.00
9077;BME280;4574;51.072;17.174;2023-03-16T04:44:10;100734.44;;;0.92;100.00
9077;BME280;4574;51.072;17.174;2023-03-16T04:46:38;100736.13;;;0.93;100.00
9077;BME280;4574;51.072;17.174;2023-03-16T04:49:07;100736.97;;;0.94;100.00
9077;BME280;4574;51.072;17.174;2023-03-16T04:51:37;100744.00;;;0.92;100.00
9077;BME280;4574;51.072;17.174;2023-03-16T04:54:08;100741.53;;;0.89;100.00
9077;BME280;4574;51.072;17.174;2023-03-16T04:56:37;100748.53;;;0.88;100.00
9077;BME280;4574;51.072;17.174;2023-03-16T04:59:09;100756.41;;;0.87;100.00
9077;BME280;4574;51.072;17.174;2023-03-16T05:01:38;100753.03;;;0.85;100.00
9077;BME280;4574;51.072;17.174;2023-03-16T05:04:06;100747.19;;;0.80;100.00
9077;BME280;4574;51.072;17.174;2023-03-16T05:06:42;100751.50;;;0.81;100.00
9077;BME280;4574;51.072;17.174;2023-03-16T05:09:11;100752.41;;;0.80;100.00
9077;BME280;4574;51.072;17.174;2023-03-16T05:11:40;100746.44;;;0.78;100.00
9077;BME280;4574;51.072;17.174;2023-03-16T05:14:10;100753.31;;;0.79;100.00
9077;BME280;4574;51.072;17.174;2023-03-16T05:16:39;100761.13;;;0.79;100.00
9077;BME280;4574;51.072;17.174;2023-03-16T05:19:07;100760.22;;;0.80;100.00
9077;BME280;4574;51.072;17.174;2023-03-16T05:21:36;100758.53;;;0.79;100.00
9077;BME280;4574;51.072;17.174;2023-03-16T05:24:08;100768.97;;;0.79;100.00
9077;BME280;4574;51.072;17.174;2023-03-16T05:26:38;100762.06;;;0.78;100.00
9077;BME280;4574;51.072;17.174;2023-03-16T05:29:07;100760.66;;;0.71;100.00
9077;BME280;4574;51.072;17.174;2023-03-16T05:31:37;100765.00;;;0.70;100.00
9077;BME280;4574;51.072;17.174;2023-03-16T05:34:05;100764.19;;;0.70;100.00
9077;BME280;4574;51.072;17.174;2023-03-16T05:36:35;100764.09;;;0.71;100.00
9077;BME280;4574;51.072;17.174;2023-03-16T05:39:03;100767.56;;;0.72;100.00
9077;BME280;4574;51.072;17.174;2023-03-16T05:41:34;100764.03;;;0.73;100.00
9077;BME280;4574;51.072;17.174;2023-03-16T05:44:03;100758.06;;;0.71;100.00
9077;BME280;4574;51.072;17.174;2023-03-16T05:46:31;100769.16;;;0.74;100.00
9077;BME280;4574;51.072;17.174;2023-03-16T05:49:02;100776.91;;;0.76;100.00
9077;BME280;4574;51.072;17.174;2023-03-16T05:51:30;100775.22;;;0.75;100.00
9077;BME280;4574;51.072;17.174;2023-03-16T05:53:59;100773.69;;;0.71;100.00
9077;BME280;4574;51.072;17.174;2023-03-16T05:56:28;100772.63;;;0.75;100.00
9077;BME280;4574;51.072;17.174;2023-03-16T05:58:56;100786.28;;;0.80;100.00
9077;BME280;4574;51.072;17.174;2023-03-16T06:01:26;100785.22;;;0.84;100.00
9077;BME280;4574;51.072;17.174;2023-03-16T06:03:54;100786.03;;;0.84;100.00
9077;BME280;4574;51.072;17.174;2023-03-16T06:06:25;100780.91;;;0.83;100.00
9077;BME280;4574;51.072;17.174;2023-03-16T06:08:53;100788.66;;;0.84;100.00
9077;BME280;4574;51.072;17.174;2023-03-16T06:11:22;100790.38;;;0.85;100.00
9077;BME280;4574;51.072;17.174;2023-03-16T06:13:50;100797.97;;;0.90;100.00
9077;BME280;4574;51.072;17.174;2023-03-16T06:16:19;100803.16;;;0.90;100.00
9077;BME280;4574;51.072;17.174;2023-03-16T06:18:47;100805.78;;;0.90;100.00
9077;BME280;4574;51.072;17.174;2023-03-16T06:21:18;100801.28;;;0.93;100.00
9077;BME280;4574;51.072;17.174;2023-03-16T06:23:49;100807.50;;;1.08;100.00
9077;BME280;4574;51.072;17.174;2023-03-16T06:26:18;100815.94;;;1.13;100.00
9077;BME280;4574;51.072;17.174;2023-03-16T06:28:47;100803.06;;;1.10;100.00
9077;BME280;4574;51.072;17.174;2023-03-16T06:31:16;100818.34;;;1.17;100.00
9077;BME280;4574;51.072;17.174;2023-03-16T06:33:44;100803.97;;;1.09;100.00
9077;BME280;4574;51.072;17.174;2023-03-16T06:36:13;100813.66;;;1.24;100.00
9077;BME280;4574;51.072;17.174;2023-03-16T06:38:41;100821.34;;;1.27;100.00
9077;BME280;4574;51.072;17.174;2023-03-16T06:41:11;100828.09;;;1.30;100.00
9077;BME280;4574;51.072;17.174;2023-03-16T06:43:40;100822.59;;;1.36;100.00
9077;BME280;4574;51.072;17.174;2023-03-16T06:46:09;100819.78;;;1.41;100.00
9077;BME280;4574;51.072;17.174;2023-03-16T06:48:38;100823.75;;;1.48;100.00
9077;BME280;4574;51.072;17.174;2023-03-16T06:51:07;100817.38;;;1.53;100.00
9077;BME280;4574;51.072;17.174;2023-03-16T06:53:36;100832.72;;;1.59;100.00
9077;BME280;4574;51.072;17.174;2023-03-16T06:56:06;100823.78;;;1.65;100.00
9077;BME280;4574;51.072;17.174;2023-03-16T06:58:36;100824.31;;;1.71;100.00
9077;BME280;4574;51.072;17.174;2023-03-16T07:01:05;100831.69;;;1.80;100.00
9077;BME280;4574;51.072;17.174;2023-03-16T07:03:33;100825.31;;;1.86;100.00
9077;BME280;4574;51.072;17.174;2023-03-16T07:06:02;100820.63;;;1.92;100.00
9077;BME280;4574;51.072;17.174;2023-03-16T07:08:31;100828.91;;;2.00;100.00
9077;BME280;4574;51.072;17.174;2023-03-16T07:11:00;100828.34;;;2.11;100.00
9077;BME280;4574;51.072;17.174;2023-03-16T07:13:29;100830.72;;;2.15;100.00
9077;BME280;4574;51.072;17.174;2023-03-16T07:15:59;100835.47;;;2.24;100.00
9077;BME280;4574;51.072;17.174;2023-03-16T07:18:27;100837.78;;;2.30;100.00
9077;BME280;4574;51.072;17.174;2023-03-16T07:20:57;100832.22;;;2.36;100.00
9077;BME280;4574;51.072;17.174;2023-03-16T07:23:26;100835.28;;;2.44;100.00
9077;BME280;4574;51.072;17.174;2023-03-16T07:25:55;100832.25;;;2.52;100.00
9077;BME280;4574;51.072;17.174;2023-03-16T07:28:25;100841.38;;;2.60;100.00
9077;BME280;4574;51.072;17.174;2023-03-16T07:30:54;100836.50;;;2.69;100.00
9077;BME280;4574;51.072;17.174;2023-03-16T07:33:32;100840.38;;;2.78;100.00
9077;BME280;4574;51.072;17.174;2023-03-16T07:36:00;100838.78;;;2.91;100.00
9077;BME280;4574;51.072;17.174;2023-03-16T07:38:34;100845.38;;;2.98;100.00
9077;BME280;4574;51.072;17.174;2023-03-16T07:41:03;100849.94;;;3.10;100.00
9077;BME280;4574;51.072;17.174;2023-03-16T07:43:32;100853.06;;;3.16;100.00
9077;BME280;4574;51.072;17.174;2023-03-16T07:46:00;100851.53;;;3.28;100.00
9077;BME280;4574;51.072;17.174;2023-03-16T07:48:30;100852.88;;;3.35;100.00
9077;BME280;4574;51.072;17.174;2023-03-16T07:50:59;100863.00;;;3.41;100.00
9077;BME280;4574;51.072;17.174;2023-03-16T07:53:28;100862.50;;;3.50;100.00
9077;BME280;4574;51.072;17.174;2023-03-16T07:55:56;100854.59;;;3.65;100.00
9077;BME280;4574;51.072;17.174;2023-03-16T07:58:25;100864.13;;;3.82;100.00
9077;BME280;4574;51.072;17.174;2023-03-16T08:00:55;100850.38;;;3.92;100.00
9077;BME280;4574;51.072;17.174;2023-03-16T08:03:24;100851.16;;;4.08;100.00
9077;BME280;4574;51.072;17.174;2023-03-16T08:05:54;100852.03;;;4.08;100.00
9077;BME280;4574;51.072;17.174;2023-03-16T08:08:23;100856.91;;;4.14;100.00
9077;BME280;4574;51.072;17.174;2023-03-16T08:10:52;100852.97;;;4.21;100.00
9077;BME280;4574;51.072;17.174;2023-03-16T08:13:22;100853.38;;;4.43;100.00
9077;BME280;4574;51.072;17.174;2023-03-16T08:15:53;100865.16;;;4.50;100.00
9077;BME280;4574;51.072;17.174;2023-03-16T08:18:24;100870.59;;;4.61;100.00
9077;BME280;4574;51.072;17.174;2023-03-16T08:20:55;100873.50;;;4.71;100.00
9077;BME280;4574;51.072;17.174;2023-03-16T08:23:24;100864.41;;;4.76;100.00
9077;BME280;4574;51.072;17.174;2023-03-16T08:25:53;100868.16;;;4.86;100.00
9077;BME280;4574;51.072;17.174;2023-03-16T08:28:25;100871.22;;;5.07;100.00
9077;BME280;4574;51.072;17.174;2023-03-16T08:30:54;100873.38;;;5.14;100.00
9077;BME280;4574;51.072;17.174;2023-03-16T08:33:24;100887.19;;;5.44;100.00
9077;BME280;4574;51.072;17.174;2023-03-16T08:35:55;100885.00;;;5.50;99.34
9077;BME280;4574;51.072;17.174;2023-03-16T08:38:24;100879.66;;;5.52;98.77
9077;BME280;4574;51.072;17.174;2023-03-16T08:40:53;100882.63;;;5.60;98.91
9077;BME280;4574;51.072;17.174;2023-03-16T08:43:23;100890.31;;;5.63;98.23
9077;BME280;4574;51.072;17.174;2023-03-16T08:45:53;100880.34;;;5.68;95.27
9077;BME280;4574;51.072;17.174;2023-03-16T08:48:21;100877.13;;;5.77;93.93
9077;BME280;4574;51.072;17.174;2023-03-16T08:50:50;100887.69;;;5.89;94.52
9077;BME280;4574;51.072;17.174;2023-03-16T08:53:21;100886.78;;;6.03;94.05
9077;BME280;4574;51.072;17.174;2023-03-16T08:56:00;100900.66;;;6.05;91.54
9077;BME280;4574;51.072;17.174;2023-03-16T08:58:29;100896.34;;;6.04;90.96
9077;BME280;4574;51.072;17.174;2023-03-16T09:01:00;100898.28;;;6.14;91.48
9077;BME280;4574;51.072;17.174;2023-03-16T09:03:30;100899.13;;;6.27;92.76
9077;BME280;4574;51.072;17.174;2023-03-16T09:06:00;100903.66;;;6.38;90.62
9077;BME280;4574;51.072;17.174;2023-03-16T09:08:32;100900.94;;;6.39;89.15
9077;BME280;4574;51.072;17.174;2023-03-16T09:11:02;100898.28;;;6.52;89.22
9077;BME280;4574;51.072;17.174;2023-03-16T09:13:31;100886.41;;;6.58;88.63
9077;BME280;4574;51.072;17.174;2023-03-16T09:16:00;100898.63;;;6.59;87.91
9077;BME280;4574;51.072;17.174;2023-03-16T09:18:28;100893.47;;;6.70;89.28
9077;BME280;4574;51.072;17.174;2023-03-16T09:20:57;100888.31;;;6.81;88.39
9077;BME280;4574;51.072;17.174;2023-03-16T09:23:26;100875.69;;;6.74;86.60
9077;BME280;4574;51.072;17.174;2023-03-16T09:25:58;100885.88;;;6.78;86.47
9077;BME280;4574;51.072;17.174;2023-03-16T09:28:28;100889.78;;;6.85;85.37
9077;BME280;4574;51.072;17.174;2023-03-16T09:30:58;100882.84;;;6.84;85.34
9077;BME280;4574;51.072;17.174;2023-03-16T09:33:27;100885.09;;;7.14;85.56
9077;BME280;4574;51.072;17.174;2023-03-16T09:35:58;100892.25;;;7.12;81.06
9077;BME280;4574;51.072;17.174;2023-03-16T09:38:27;100893.75;;;6.91;79.48
9077;BME280;4574;51.072;17.174;2023-03-16T09:40:59;100889.78;;;6.85;81.26
9077;BME280;4574;51.072;17.174;2023-03-16T09:46:24;100899.66;;;6.69;81.88
9077;BME280;4574;51.072;17.174;2023-03-16T09:48:55;100895.44;;;6.79;82.23
9077;BME280;4574;51.072;17.174;2023-03-16T09:51:35;100890.19;;;6.92;81.98
9077;BME280;4574;51.072;17.174;2023-03-16T09:54:11;100896.28;;;7.05;81.57
9077;BME280;4574;51.072;17.174;2023-03-16T09:56:43;100893.34;;;7.09;80.81
9077;BME280;4574;51.072;17.174;2023-03-16T09:59:14;100898.91;;;7.17;77.73
9077;BME280;4574;51.072;17.174;2023-03-16T10:02:03;100899.41;;;7.22;77.66
9077;BME280;4574;51.072;17.174;2023-03-16T10:04:39;100892.13;;;7.26;77.27
9077;BME280;4574;51.072;17.174;2023-03-16T10:07:20;100899.47;;;7.33;78.72
9077;BME280;4574;51.072;17.174;2023-03-16T10:09:56;100895.59;;;7.26;75.39
9077;BME280;4574;51.072;17.174;2023-03-16T10:12:30;100895.81;;;7.23;75.35
9077;BME280;4574;51.072;17.174;2023-03-16T10:15:06;100893.19;;;7.23;76.53
9077;BME280;4574;51.072;17.174;2023-03-16T10:17:40;100903.22;;;7.18;70.99
9077;BME280;4574;51.072;17.174;2023-03-16T10:20:15;100901.22;;;7.09;70.88
9077;BME280;4574;51.072;17.174;2023-03-16T10:22:46;100906.06;;;7.15;71.07
9077;BME280;4574;51.072;17.174;2023-03-16T10:25:19;100906.66;;;7.19;70.63
9077;BME280;4574;51.072;17.174;2023-03-16T10:27:51;100907.59;;;7.30;74.00
9077;BME280;4574;51.072;17.174;2023-03-16T10:30:25;100903.66;;;7.48;73.73
9077;BME280;4574;51.072;17.174;2023-03-16T10:32:55;100902.47;;;7.52;73.84
9077;BME280;4574;51.072;17.174;2023-03-16T10:35:40;100901.31;;;7.44;70.23
9077;BME280;4574;51.072;17.174;2023-03-16T10:38:26;100898.41;;;7.36;71.03
9077;BME280;4574;51.072;17.174;2023-03-16T10:40:55;100888.09;;;7.33;72.63
9077;BME280;4574;51.072;17.174;2023-03-16T10:43:27;100894.22;;;7.33;69.35
9077;BME280;4574;51.072;17.174;2023-03-16T10:46:00;100896.22;;;7.30;69.75
9077;BME280;4574;51.072;17.174;2023-03-16T10:48:31;100886.66;;;7.52;71.39
9077;BME280;4574;51.072;17.174;2023-03-16T10:51:03;100887.22;;;7.68;71.08
9077;BME280;4574;51.072;17.174;2023-03-16T10:53:34;100881.59;;;7.96;69.21
9077;BME280;4574;51.072;17.174;2023-03-16T10:56:09;100886.41;;;8.25;71.47
9077;BME280;4574;51.072;17.174;2023-03-16T10:58:41;100890.28;;;8.43;65.87
9077;BME280;4574;51.072;17.174;2023-03-16T11:01:11;100897.03;;;8.47;64.23
9077;BME280;4574;51.072;17.174;2023-03-16T11:03:40;100888.06;;;8.61;64.92
9077;BME280;4574;51.072;17.174;2023-03-16T11:06:18;100866.72;;;8.64;67.03
9077;BME280;4574;51.072;17.174;2023-03-16T11:08:48;100883.16;;;8.78;68.76
9077;BME280;4574;51.072;17.174;2023-03-16T11:11:24;100878.97;;;8.76;68.50
9077;BME280;4574;51.072;17.174;2023-03-16T11:13:57;100877.16;;;8.87;69.71
9077;BME280;4574;51.072;17.174;2023-03-16T11:16:30;100889.50;;;9.20;65.71
9077;BME280;4574;51.072;17.174;2023-03-16T11:19:03;100884.06;;;9.32;63.53
9077;BME280;4574;51.072;17.174;2023-03-16T11:21:41;100886.00;;;9.41;62.10
9077;BME280;4574;51.072;17.174;2023-03-16T11:24:22;100892.19;;;9.62;63.85
9077;BME280;4574;51.072;17.174;2023-03-16T11:26:54;100883.88;;;9.66;62.33
9077;BME280;4574;51.072;17.174;2023-03-16T11:29:28;100881.00;;;9.69;61.95
9077;BME280;4574;51.072;17.174;2023-03-16T11:32:03;100875.91;;;9.77;60.32
9077;BME280;4574;51.072;17.174;2023-03-16T11:34:32;100883.75;;;9.99;63.44
9077;BME280;4574;51.072;17.174;2023-03-16T11:37:11;100886.75;;;10.37;65.63
9077;BME280;4574;51.072;17.174;2023-03-16T11:39:50;100875.03;;;10.19;58.58
9077;BME280;4574;51.072;17.174;2023-03-16T11:42:28;100857.31;;;9.99;57.08
9077;BME280;4574;51.072;17.174;2023-03-16T11:45:09;100877.94;;;10.16;60.26
9077;BME280;4574;51.072;17.174;2023-03-16T11:50:52;100873.81;;;9.60;58.23
9077;BME280;4574;51.072;17.174;2023-03-16T11:53:34;100872.47;;;9.66;59.22
9077;BME280;4574;51.072;17.174;2023-03-16T11:56:13;100875.50;;;9.93;60.59
9077;BME280;4574;51.072;17.174;2023-03-16T12:01:47;100866.31;;;9.76;58.49
9077;BME280;4574;51.072;17.174;2023-03-16T12:04:43;100865.22;;;9.79;58.93
9077;BME280;4574;51.072;17.174;2023-03-16T12:07:25;100867.66;;;10.02;59.82
9077;BME280;4574;51.072;17.174;2023-03-16T12:10:20;100863.81;;;10.27;57.17
9077;BME280;4574;51.072;17.174;2023-03-16T12:13:03;100858.31;;;10.60;58.65
9077;BME280;4574;51.072;17.174;2023-03-16T12:15:40;100852.19;;;10.89;56.86
9077;BME280;4574;51.072;17.174;2023-03-16T12:18:15;100850.59;;;11.07;56.75
9077;BME280;4574;51.072;17.174;2023-03-16T12:20:52;100857.78;;;11.35;53.58
9077;BME280;4574;51.072;17.174;2023-03-16T12:23:27;100857.06;;;11.33;51.26
9077;BME280;4574;51.072;17.174;2023-03-16T12:25:57;100855.13;;;11.35;51.01
9077;BME280;4574;51.072;17.174;2023-03-16T12:28:29;100849.28;;;11.41;48.12
9077;BME280;4574;51.072;17.174;2023-03-16T12:31:04;100851.59;;;11.74;51.53
9077;BME280;4574;51.072;17.174;2023-03-16T12:33:47;100838.75;;;12.16;54.59
9077;BME280;4574;51.072;17.174;2023-03-16T12:36:44;100852.41;;;12.31;52.46
9077;BME280;4574;51.072;17.174;2023-03-16T12:39:23;100854.81;;;12.05;52.17
9077;BME280;4574;51.072;17.174;2023-03-16T12:42:03;100848.69;;;11.96;50.09
9077;BME280;4574;51.072;17.174;2023-03-16T12:44:44;100856.03;;;12.30;53.19
9077;BME280;4574;51.072;17.174;2023-03-16T12:47:19;100846.34;;;12.57;51.70
9077;BME280;4574;51.072;17.174;2023-03-16T12:49:51;100831.22;;;12.67;53.42
9077;BME280;4574;51.072;17.174;2023-03-16T12:52:20;100832.19;;;12.66;44.40
9077;BME280;4574;51.072;17.174;2023-03-16T12:54:50;100847.28;;;11.92;44.97
9077;BME280;4574;51.072;17.174;2023-03-16T12:57:21;100828.44;;;11.95;48.64
9077;BME280;4574;51.072;17.174;2023-03-16T12:59:56;100839.19;;;12.02;46.13
9077;BME280;4574;51.072;17.174;2023-03-16T13:02:28;100841.81;;;11.93;46.00
9077;BME280;4574;51.072;17.174;2023-03-16T13:05:01;100847.97;;;12.12;46.33
9077;BME280;4574;51.072;17.174;2023-03-16T13:07:31;100854.06;;;12.41;48.61
9077;BME280;4574;51.072;17.174;2023-03-16T13:10:02;100843.75;;;12.38;49.18
9077;BME280;4574;51.072;17.174;2023-03-16T13:12:36;100848.47;;;12.44;49.11
9077;BME280;4574;51.072;17.174;2023-03-16T13:15:28;100846.28;;;12.11;47.80
9077;BME280;4574;51.072;17.174;2023-03-16T13:18:19;100845.00;;;12.25;49.41
9077;BME280;4574;51.072;17.174;2023-03-16T13:20:53;100848.75;;;12.41;45.55
9077;BME280;4574;51.072;17.174;2023-03-16T13:23:24;100845.31;;;12.77;51.61
9077;BME280;4574;51.072;17.174;2023-03-16T13:26:22;100848.91;;;12.86;45.49
9077;BME280;4574;51.072;17.174;2023-03-16T13:28:54;100833.25;;;12.92;43.19
9077;BME280;4574;51.072;17.174;2023-03-16T13:31:26;100851.91;;;13.10;45.82
9077;BME280;4574;51.072;17.174;2023-03-16T13:33:56;100843.84;;;13.02;42.27
9077;BME280;4574;51.072;17.174;2023-03-16T13:36:31;100841.56;;;13.34;45.64